Time;durP1;ratioP1;P1;durP2;ratioP2;P2;SDS_P1;SDS_P2;PMS_P1;PMS_P2;Temp;Humidity;BMP_temperature;BMP_pressure;BME280_temperature;BME280_humidity;BME280_pressure;Samples;Min_cycle;Max_cycle;Signal;HPM_P1;HPM_P2
2024/01/29 00:02:00;;;;;;;4.43;4.03;;;2.20;99.90;;;;;;5000868;28;20478;-60
2024/01/29 00:04:26;;;;;;;5.53;4.37;;;2.20;99.90;;;;;;4993207;28;20424;-58
2024/01/29 00:06:54;;;;;;;9.17;4.40;;;2.20;99.90;;;;;;4993500;28;20915;-59
2024/01/29 00:09:21;;;;;;;8.30;4.37;;;2.20;99.90;;;;;;4992944;28;20420;-59
2024/01/29 00:11:49;;;;;;;8.57;5.83;;;2.20;99.90;;;;;;4996128;28;20416;-58
2024/01/29 00:14:23;;;;;;;11.20;5.27;;;2.20;99.90;;;;;;4993738;28;20443;-59
2024/01/29 00:16:49;;;;;;;8.33;4.70;;;2.10;99.90;;;;;;4993572;28;20462;-59
2024/01/29 00:19:15;;;;;;;11.50;5.97;;;2.10;99.90;;;;;;4993033;28;20420;-59
2024/01/29 00:21:41;;;;;;;10.63;5.20;;;2.10;99.90;;;;;;4995881;28;20417;-59
2024/01/29 00:24:07;;;;;;;7.60;4.90;;;2.20;99.90;;;;;;4992909;28;20967;-57
2024/01/29 00:26:33;;;;;;;6.83;3.93;;;2.10;99.90;;;;;;4993552;28;20249;-59
2024/01/29 00:29:04;;;;;;;8.27;3.80;;;2.10;99.90;;;;;;4992838;28;20412;-58
2024/01/29 00:31:33;;;;;;;6.53;4.27;;;2.20;99.90;;;;;;4993175;28;20432;-58
2024/01/29 00:33:59;;;;;;;4.60;3.77;;;2.20;99.90;;;;;;4994009;28;20416;-59
2024/01/29 00:36:25;;;;;;;6.97;4.90;;;2.20;99.90;;;;;;4993161;28;20997;-58
2024/01/29 00:38:53;;;;;;;6.33;4.30;;;2.20;99.90;;;;;;4993285;28;20652;-59
2024/01/29 00:41:19;;;;;;;5.23;3.40;;;2.20;99.90;;;;;;4992416;28;20802;-58
2024/01/29 00:43:45;;;;;;;8.47;4.20;;;2.30;99.90;;;;;;4993541;28;20442;-58
2024/01/29 00:46:11;;;;;;;7.77;3.87;;;2.30;99.90;;;;;;5000283;28;20931;-58
2024/01/29 00:48:37;;;;;;;4.53;3.80;;;2.30;99.90;;;;;;4993367;28;20420;-59
2024/01/29 00:51:03;;;;;;;9.50;4.20;;;2.30;99.90;;;;;;4993002;28;20538;-59
2024/01/29 00:53:29;;;;;;;5.97;4.40;;;2.30;99.90;;;;;;4992342;28;20424;-58
2024/01/29 00:55:55;;;;;;;5.90;4.23;;;2.30;99.90;;;;;;4994253;28;20498;-59
2024/01/29 00:58:21;;;;;;;8.70;5.07;;;2.30;99.90;;;;;;4992969;28;20424;-60
2024/01/29 01:00:50;;;;;;;6.70;4.20;;;2.30;99.90;;;;;;4999304;28;20499;-61
2024/01/29 01:03:19;;;;;;;5.07;4.17;;;2.40;99.90;;;;;;4995364;28;20168;-59
2024/01/29 01:05:45;;;;;;;8.80;4.67;;;2.40;99.90;;;;;;4993223;28;20408;-58
2024/01/29 01:08:10;;;;;;;6.60;4.37;;;2.40;99.90;;;;;;4992864;28;20436;-58
2024/01/29 01:10:36;;;;;;;5.43;3.83;;;2.30;99.90;;;;;;4992788;28;20432;-58
2024/01/29 01:13:04;;;;;;;4.40;3.73;;;2.30;99.90;;;;;;4993391;28;20172;-58
2024/01/29 01:15:37;;;;;;;5.07;4.33;;;2.30;99.90;;;;;;4992587;28;20420;-58
2024/01/29 01:18:04;;;;;;;7.17;4.37;;;2.30;99.90;;;;;;4995787;28;20465;-59
2024/01/29 01:20:32;;;;;;;5.73;4.60;;;2.30;99.90;;;;;;4991730;28;20789;-59
2024/01/29 01:23:00;;;;;;;6.60;4.20;;;2.30;99.90;;;;;;4998661;28;20416;-57
2024/01/29 01:25:29;;;;;;;6.63;4.47;;;2.30;99.90;;;;;;4992045;28;20470;-58
2024/01/29 01:27:55;;;;;;;6.80;4.77;;;2.20;99.90;;;;;;4993275;28;20408;-59
2024/01/29 01:30:25;;;;;;;4.33;3.87;;;2.20;99.90;;;;;;4993137;28;20424;-59
2024/01/29 01:32:50;;;;;;;12.20;4.73;;;2.20;99.90;;;;;;4985833;28;20750;-59
2024/01/29 01:35:19;;;;;;;7.27;4.47;;;2.30;99.90;;;;;;4996251;28;20468;-59
2024/01/29 01:37:45;;;;;;;7.17;4.30;;;2.20;99.90;;;;;;4999723;28;20419;-60
2024/01/29 01:40:20;;;;;;;8.03;4.90;;;2.20;99.90;;;;;;5004978;28;20435;-60
2024/01/29 01:42:53;;;;;;;8.33;3.73;;;2.20;99.90;;;;;;4993323;28;20426;-60
2024/01/29 01:45:19;;;;;;;7.43;4.10;;;2.20;99.90;;;;;;4995631;28;20407;-61
2024/01/29 01:47:48;;;;;;;10.17;4.53;;;2.20;99.90;;;;;;4997869;28;20424;-57
2024/01/29 01:50:17;;;;;;;5.47;4.20;;;2.20;99.90;;;;;;4995246;28;20452;-58
2024/01/29 01:52:43;;;;;;;9.20;4.87;;;2.10;99.90;;;;;;4994323;28;20435;-61
2024/01/29 01:55:09;;;;;;;5.43;4.87;;;2.10;99.90;;;;;;4995474;28;20424;-59
2024/01/29 01:57:37;;;;;;;9.83;4.63;;;2.10;99.90;;;;;;4995793;28;20455;-59
2024/01/29 02:00:06;;;;;;;10.23;4.53;;;2.10;99.90;;;;;;4995326;28;20444;-59
2024/01/29 02:02:32;;;;;;;9.93;4.00;;;2.10;99.90;;;;;;4995791;28;20781;-59
2024/01/29 02:04:58;;;;;;;6.73;4.87;;;2.10;99.90;;;;;;4995402;28;20420;-59
2024/01/29 02:07:27;;;;;;;5.87;4.83;;;2.10;99.90;;;;;;4995864;28;20507;-59
2024/01/29 02:09:55;;;;;;;6.70;4.93;;;2.10;99.90;;;;;;4992438;28;20462;-59
2024/01/29 02:12:22;;;;;;;13.43;4.97;;;2.10;99.90;;;;;;4995374;28;20495;-58
2024/01/29 02:14:51;;;;;;;11.13;5.60;;;2.10;99.90;;;;;;4995017;28;20411;-59
2024/01/29 02:17:17;;;;;;;8.47;5.50;;;2.00;99.90;;;;;;4995000;28;20468;-59
2024/01/29 02:19:43;;;;;;;10.10;6.77;;;2.00;99.90;;;;;;4995092;28;20598;-59
2024/01/29 02:22:08;;;;;;;7.60;4.47;;;2.00;99.90;;;;;;5018836;22;20415;-58
2024/01/29 02:24:34;;;;;;;8.40;4.70;;;1.90;99.90;;;;;;4996134;28;20508;-59
2024/01/29 02:27:00;;;;;;;6.03;5.13;;;1.90;99.90;;;;;;4993406;28;20187;-57
2024/01/29 02:29:25;;;;;;;9.40;6.20;;;1.90;99.90;;;;;;4998082;28;20189;-63
2024/01/29 02:31:51;;;;;;;6.40;5.00;;;1.90;99.90;;;;;;4995024;28;20680;-57
2024/01/29 02:34:17;;;;;;;9.60;5.63;;;1.90;99.90;;;;;;4988727;28;20187;-60
2024/01/29 02:36:43;;;;;;;5.37;4.03;;;1.90;99.90;;;;;;4992565;28;20287;-60
2024/01/29 02:39:09;;;;;;;6.37;4.40;;;1.90;99.90;;;;;;4993100;28;20184;-61
2024/01/29 02:41:35;;;;;;;7.10;5.57;;;1.90;99.90;;;;;;4991822;28;20479;-61
2024/01/29 02:44:00;;;;;;;8.63;5.20;;;1.90;99.90;;;;;;4992799;28;20524;-61
2024/01/29 02:46:26;;;;;;;6.70;5.23;;;1.90;99.90;;;;;;4993384;28;20188;-61
2024/01/29 02:48:51;;;;;;;4.87;3.90;;;1.90;99.90;;;;;;4991887;28;20649;-60
2024/01/29 02:51:17;;;;;;;7.40;5.10;;;1.90;99.90;;;;;;4994738;28;20576;-59
2024/01/29 02:53:43;;;;;;;7.60;5.30;;;1.90;99.90;;;;;;4998322;28;20216;-58
2024/01/29 02:56:08;;;;;;;9.53;5.27;;;1.90;99.90;;;;;;4992397;28;20266;-59
2024/01/29 02:58:34;;;;;;;9.83;5.10;;;1.90;99.90;;;;;;4991478;28;20613;-60
2024/01/29 03:00:59;;;;;;;9.50;4.47;;;1.90;99.90;;;;;;4992914;28;20196;-59
2024/01/29 03:03:25;;;;;;;11.10;6.27;;;1.90;99.90;;;;;;4992409;28;20209;-59
2024/01/29 03:05:50;;;;;;;13.57;5.40;;;1.90;99.90;;;;;;4993123;28;20185;-60
2024/01/29 03:08:16;;;;;;;14.33;4.70;;;1.90;99.90;;;;;;4992407;28;20707;-63
2024/01/29 03:10:42;;;;;;;6.10;5.43;;;1.90;99.90;;;;;;4992933;28;20534;-61
2024/01/29 03:13:08;;;;;;;11.10;4.93;;;1.80;99.90;;;;;;4990832;28;20215;-60
2024/01/29 03:15:33;;;;;;;14.17;5.63;;;1.90;99.90;;;;;;4993105;28;20911;-61
2024/01/29 03:17:59;;;;;;;7.20;5.50;;;1.90;99.90;;;;;;4992504;28;20570;-61
2024/01/29 03:20:25;;;;;;;8.50;5.47;;;1.90;99.90;;;;;;4992996;28;20522;-61
2024/01/29 03:22:50;;;;;;;5.30;4.33;;;1.90;99.90;;;;;;4992673;28;20208;-63
2024/01/29 03:25:16;;;;;;;11.73;5.07;;;1.90;99.90;;;;;;4992396;28;20659;-58
2024/01/29 03:27:41;;;;;;;6.17;5.53;;;1.90;99.90;;;;;;4989245;28;20594;-59
2024/01/29 03:30:07;;;;;;;7.30;4.83;;;1.90;99.90;;;;;;4995486;28;20185;-62
2024/01/29 03:32:33;;;;;;;6.70;4.83;;;1.80;99.90;;;;;;4996364;28;20200;-63
2024/01/29 03:34:58;;;;;;;11.37;5.33;;;1.90;99.90;;;;;;4991869;28;20453;-64
2024/01/29 03:37:24;;;;;;;12.90;5.93;;;1.80;99.90;;;;;;4992374;28;20200;-58
2024/01/29 03:39:50;;;;;;;9.83;4.40;;;1.80;99.90;;;;;;4991816;28;20585;-57
2024/01/29 03:42:16;;;;;;;9.03;4.30;;;1.80;99.90;;;;;;4989404;28;20472;-59
2024/01/29 03:44:41;;;;;;;7.93;5.40;;;1.80;99.90;;;;;;4990600;28;20173;-58
2024/01/29 03:47:07;;;;;;;11.90;5.80;;;1.70;99.90;;;;;;4992260;28;20177;-60
2024/01/29 03:49:34;;;;;;;7.00;5.47;;;1.70;99.90;;;;;;4985514;28;20177;-58
2024/01/29 03:51:59;;;;;;;10.30;6.27;;;1.70;99.90;;;;;;4990089;28;20185;-60
2024/01/29 03:54:25;;;;;;;7.33;5.70;;;1.70;99.90;;;;;;4984069;28;20473;-63
2024/01/29 03:56:50;;;;;;;6.93;5.20;;;1.70;99.90;;;;;;4992217;28;20196;-61
2024/01/29 03:59:16;;;;;;;8.53;5.47;;;1.70;99.90;;;;;;4988087;28;20358;-61
2024/01/29 04:01:41;;;;;;;9.70;6.10;;;1.60;99.90;;;;;;4987293;28;20183;-63
2024/01/29 04:04:10;;;;;;;7.57;5.60;;;1.60;99.90;;;;;;4991489;28;20566;-62
2024/01/29 04:06:40;;;;;;;14.07;5.57;;;1.60;99.90;;;;;;4988375;28;20655;-62
2024/01/29 04:09:09;;;;;;;8.90;5.40;;;1.60;99.90;;;;;;4990023;28;20475;-63
2024/01/29 04:11:35;;;;;;;9.80;6.03;;;1.50;99.90;;;;;;4989425;28;20424;-62
2024/01/29 04:14:00;;;;;;;7.27;4.97;;;1.50;99.90;;;;;;4992013;28;20539;-62
2024/01/29 04:16:26;;;;;;;11.37;5.47;;;1.50;99.90;;;;;;4985098;28;20543;-61
2024/01/29 04:18:51;;;;;;;8.27;5.00;;;1.50;99.90;;;;;;4981867;28;20193;-63
2024/01/29 04:21:18;;;;;;;9.80;5.93;;;1.50;99.90;;;;;;4988452;28;20553;-59
2024/01/29 04:23:43;;;;;;;11.37;5.40;;;1.50;99.90;;;;;;4993073;28;20228;-60
2024/01/29 04:26:09;;;;;;;11.13;6.23;;;1.40;99.90;;;;;;4997315;28;20497;-61
2024/01/29 04:28:34;;;;;;;10.80;5.43;;;1.40;99.90;;;;;;4999051;28;20183;-61
2024/01/29 04:31:00;;;;;;;13.23;4.87;;;1.40;99.90;;;;;;4991858;28;20176;-62
2024/01/29 04:33:26;;;;;;;10.43;5.30;;;1.40;99.90;;;;;;4988037;28;20279;-62
2024/01/29 04:35:51;;;;;;;10.73;6.00;;;1.40;99.90;;;;;;4992338;28;20491;-63
2024/01/29 04:38:17;;;;;;;11.87;5.90;;;1.40;99.90;;;;;;4989889;28;20531;-60
2024/01/29 04:40:43;;;;;;;8.10;4.90;;;1.40;99.90;;;;;;4992422;28;20359;-63
2024/01/29 04:43:08;;;;;;;9.90;5.20;;;1.40;99.90;;;;;;4989070;28;20205;-60
2024/01/29 04:45:34;;;;;;;9.17;5.77;;;1.30;99.90;;;;;;4994292;28;20411;-62
2024/01/29 04:47:59;;;;;;;8.30;5.77;;;1.30;99.90;;;;;;4992612;28;20594;-63
2024/01/29 04:50:25;;;;;;;8.80;5.50;;;1.30;99.90;;;;;;4992684;28;20238;-62
2024/01/29 04:52:50;;;;;;;5.87;4.70;;;1.30;99.90;;;;;;4991072;28;20200;-63
2024/01/29 04:55:16;;;;;;;8.73;5.50;;;1.30;99.90;;;;;;4990446;28;20483;-63
2024/01/29 04:57:42;;;;;;;7.50;5.67;;;1.30;99.90;;;;;;4991192;28;20204;-61
2024/01/29 05:00:08;;;;;;;10.50;5.63;;;1.30;99.90;;;;;;4983218;28;20188;-61
2024/01/29 05:02:35;;;;;;;11.70;5.37;;;1.40;99.90;;;;;;4988420;28;20260;-61
2024/01/29 05:05:01;;;;;;;9.73;4.60;;;1.30;99.90;;;;;;4991130;28;20420;-62
2024/01/29 05:07:26;;;;;;;16.90;6.10;;;1.30;99.90;;;;;;4987371;28;20917;-64
2024/01/29 05:09:52;;;;;;;7.00;4.90;;;1.30;99.90;;;;;;4985682;28;20460;-61
2024/01/29 05:12:17;;;;;;;6.33;4.80;;;1.40;99.90;;;;;;4988899;28;20280;-61
2024/01/29 05:14:43;;;;;;;9.77;5.70;;;1.30;99.90;;;;;;4990854;28;20185;-63
2024/01/29 05:17:09;;;;;;;8.70;5.97;;;1.30;99.90;;;;;;4989529;28;20300;-64
2024/01/29 05:19:35;;;;;;;11.77;5.70;;;1.30;99.90;;;;;;4985644;28;20611;-62
2024/01/29 05:22:01;;;;;;;8.47;5.07;;;1.30;99.90;;;;;;4990153;28;20412;-62
2024/01/29 05:24:27;;;;;;;8.73;5.50;;;1.40;99.90;;;;;;4988853;28;20216;-61
2024/01/29 05:26:53;;;;;;;7.00;4.97;;;1.30;99.90;;;;;;4990549;28;20887;-62
2024/01/29 05:29:19;;;;;;;9.20;6.03;;;1.40;99.90;;;;;;4982796;28;20516;-63
2024/01/29 05:31:44;;;;;;;6.23;4.70;;;1.40;99.90;;;;;;4986823;28;20187;-61
2024/01/29 05:34:10;;;;;;;12.93;6.50;;;1.40;99.90;;;;;;4990355;28;20582;-62
2024/01/29 05:36:36;;;;;;;9.47;5.77;;;1.40;99.90;;;;;;4992582;28;20227;-63
2024/01/29 05:39:02;;;;;;;5.80;5.13;;;1.40;99.90;;;;;;4994678;28;20231;-63
2024/01/29 05:41:28;;;;;;;9.83;5.87;;;1.30;99.90;;;;;;4990607;28;20220;-63
2024/01/29 05:43:53;;;;;;;11.17;5.80;;;1.30;99.90;;;;;;4990635;28;20498;-63
2024/01/29 05:46:19;;;;;;;10.30;4.90;;;1.30;99.90;;;;;;4983502;28;20264;-62
2024/01/29 05:48:44;;;;;;;9.67;6.37;;;1.30;99.90;;;;;;4993602;28;20196;-63
2024/01/29 05:51:10;;;;;;;11.33;5.73;;;1.30;99.90;;;;;;4993594;28;20208;-62
2024/01/29 05:53:35;;;;;;;6.50;4.53;;;1.40;99.90;;;;;;4990456;28;20251;-60
2024/01/29 05:56:05;;;;;;;8.97;6.00;;;1.40;99.90;;;;;;4990205;28;20223;-61
2024/01/29 05:58:33;;;;;;;12.10;4.83;;;1.30;99.90;;;;;;4990508;28;20184;-62
2024/01/29 06:00:59;;;;;;;11.33;6.17;;;1.30;99.90;;;;;;4979649;28;20445;-63
2024/01/29 06:03:25;;;;;;;7.93;5.10;;;1.30;99.90;;;;;;4985147;28;20456;-62
2024/01/29 06:05:51;;;;;;;12.17;5.43;;;1.30;99.90;;;;;;4988008;28;20420;-61
2024/01/29 06:08:16;;;;;;;13.63;5.27;;;1.30;99.90;;;;;;4986531;28;20427;-58
2024/01/29 06:10:42;;;;;;;10.50;5.10;;;1.40;99.90;;;;;;4985350;28;20762;-62
2024/01/29 06:13:08;;;;;;;16.10;6.20;;;1.40;99.90;;;;;;4982701;28;20305;-61
2024/01/29 06:15:34;;;;;;;10.63;5.40;;;1.40;99.90;;;;;;4977460;28;20173;-62
2024/01/29 06:18:00;;;;;;;7.03;5.23;;;1.40;99.90;;;;;;4992035;28;20737;-62
2024/01/29 06:20:25;;;;;;;12.67;6.63;;;1.40;99.90;;;;;;4988308;28;20177;-58
2024/01/29 06:22:51;;;;;;;7.40;5.43;;;1.40;99.90;;;;;;4986195;28;20205;-58
2024/01/29 06:25:19;;;;;;;10.37;5.83;;;1.50;99.90;;;;;;4991768;28;20529;-60
2024/01/29 06:27:45;;;;;;;10.40;5.97;;;1.80;99.90;;;;;;4980112;28;20943;-61
2024/01/29 06:30:12;;;;;;;11.83;4.83;;;1.60;99.90;;;;;;4986411;28;20831;-64
2024/01/29 06:32:38;;;;;;;6.07;5.00;;;1.50;99.90;;;;;;4994222;28;20524;-65
2024/01/29 06:35:04;;;;;;;11.37;5.80;;;1.50;99.90;;;;;;4987790;28;20503;-64
2024/01/29 06:37:29;;;;;;;7.97;4.80;;;1.50;99.90;;;;;;4995578;28;20211;-60
2024/01/29 06:39:55;;;;;;;11.10;5.53;;;1.50;99.90;;;;;;4985202;28;20247;-61
2024/01/29 06:42:20;;;;;;;10.30;5.20;;;1.50;99.90;;;;;;5002114;28;20234;-60
2024/01/29 06:44:46;;;;;;;6.87;5.10;;;1.50;99.90;;;;;;4982657;28;20273;-59
2024/01/29 06:47:12;;;;;;;9.90;5.10;;;1.60;99.90;;;;;;4986627;28;20173;-60
2024/01/29 06:49:37;;;;;;;7.23;5.53;;;1.50;99.90;;;;;;4993020;28;20173;-58
2024/01/29 06:52:03;;;;;;;8.10;5.00;;;1.60;99.90;;;;;;4990742;28;20192;-59
2024/01/29 06:54:29;;;;;;;8.80;6.37;;;1.60;99.90;;;;;;4994788;28;20678;-58
2024/01/29 06:56:55;;;;;;;7.17;5.17;;;1.60;99.90;;;;;;4994300;28;20201;-60
2024/01/29 06:59:21;;;;;;;8.73;5.93;;;1.60;99.90;;;;;;4984020;28;20201;-57
2024/01/29 07:01:46;;;;;;;8.10;5.07;;;1.60;99.90;;;;;;4992388;28;20985;-57
2024/01/29 07:04:12;;;;;;;7.07;5.20;;;1.70;99.90;;;;;;4985323;28;20288;-59
2024/01/29 07:06:37;;;;;;;7.73;4.77;;;1.70;99.90;;;;;;4996112;28;20233;-57
2024/01/29 07:09:03;;;;;;;12.40;6.07;;;1.70;99.90;;;;;;4979393;28;20659;-63
2024/01/29 07:11:29;;;;;;;6.07;4.17;;;1.80;99.90;;;;;;4991706;28;20177;-63
2024/01/29 07:13:54;;;;;;;11.07;5.03;;;1.80;99.90;;;;;;4990580;28;20920;-60
2024/01/29 07:16:20;;;;;;;8.10;4.90;;;1.90;99.90;;;;;;4978130;28;20242;-61
2024/01/29 07:18:46;;;;;;;8.73;4.73;;;1.90;99.90;;;;;;4993326;28;20187;-60
2024/01/29 07:21:11;;;;;;;10.87;4.90;;;2.00;99.90;;;;;;4976577;28;20594;-63
2024/01/29 07:23:37;;;;;;;9.17;4.83;;;2.00;99.90;;;;;;4984775;28;20204;-61
2024/01/29 07:26:03;;;;;;;7.13;5.03;;;2.10;99.90;;;;;;4984645;28;20193;-60
2024/01/29 07:28:30;;;;;;;7.93;5.53;;;2.20;99.90;;;;;;4990996;28;20189;-60
2024/01/29 07:30:56;;;;;;;6.93;5.17;;;2.30;99.90;;;;;;4981819;28;20898;-62
2024/01/29 07:33:21;;;;;;;9.13;5.40;;;2.30;99.90;;;;;;4976681;28;20447;-63
2024/01/29 07:35:48;;;;;;;5.97;4.10;;;2.40;99.90;;;;;;4983380;28;20546;-61
2024/01/29 07:38:14;;;;;;;7.43;4.87;;;2.50;99.90;;;;;;4980075;28;20181;-63
2024/01/29 07:40:39;;;;;;;6.20;4.30;;;2.60;99.90;;;;;;4990256;28;20566;-60
2024/01/29 07:43:05;;;;;;;8.00;4.60;;;2.70;99.90;;;;;;4979899;28;20450;-62
2024/01/29 07:45:30;;;;;;;10.80;5.17;;;2.80;99.90;;;;;;4984141;28;20176;-56
2024/01/29 07:47:56;;;;;;;6.83;4.20;;;2.80;99.90;;;;;;4988831;28;20180;-60
2024/01/29 07:50:22;;;;;;;9.63;5.20;;;2.90;99.90;;;;;;4987057;28;20165;-62
2024/01/29 07:52:47;;;;;;;7.10;5.20;;;3.00;99.90;;;;;;4995208;28;20440;-61
2024/01/29 07:55:13;;;;;;;6.30;4.63;;;3.10;99.90;;;;;;4992620;28;20182;-62
2024/01/29 07:57:39;;;;;;;5.63;4.47;;;3.20;99.90;;;;;;5000034;28;20704;-59
2024/01/29 08:00:05;;;;;;;6.80;4.80;;;3.30;99.90;;;;;;4993337;28;20168;-56
2024/01/29 08:02:31;;;;;;;8.83;5.00;;;3.40;99.90;;;;;;4989183;28;20460;-60
2024/01/29 08:04:57;;;;;;;21.20;5.93;;;3.50;99.90;;;;;;4991595;28;20416;-61
2024/01/29 08:07:23;;;;;;;8.03;5.53;;;3.50;99.90;;;;;;4979753;28;20444;-62
2024/01/29 08:09:48;;;;;;;4.30;3.90;;;3.50;99.90;;;;;;4977147;28;20276;-60
2024/01/29 08:12:14;;;;;;;6.13;5.20;;;3.60;99.90;;;;;;4985592;28;20385;-62
2024/01/29 08:14:40;;;;;;;7.63;4.57;;;4.10;99.90;;;;;;4987914;28;20200;-61
2024/01/29 08:17:05;;;;;;;5.77;5.17;;;4.90;99.90;;;;;;4987752;28;20197;-60
2024/01/29 08:19:31;;;;;;;7.23;4.73;;;5.40;99.90;;;;;;4986561;28;20287;-60
2024/01/29 08:21:57;;;;;;;10.43;5.30;;;5.70;99.90;;;;;;4976322;28;20169;-59
2024/01/29 08:24:23;;;;;;;5.77;4.07;;;5.80;99.90;;;;;;4983703;28;20884;-63
2024/01/29 08:26:48;;;;;;;11.33;4.83;;;6.10;99.90;;;;;;4982850;28;20177;-64
2024/01/29 08:29:14;;;;;;;5.97;3.93;;;6.30;99.90;;;;;;4980374;28;20181;-61
2024/01/29 08:31:40;;;;;;;8.93;4.50;;;6.70;99.90;;;;;;4983245;28;20168;-61
2024/01/29 08:34:06;;;;;;;5.67;4.03;;;6.70;99.90;;;;;;4977845;28;20194;-59
2024/01/29 08:36:31;;;;;;;5.10;4.47;;;7.20;99.90;;;;;;4982944;28;20288;-61
2024/01/29 08:38:57;;;;;;;5.50;3.97;;;7.60;99.90;;;;;;4987085;28;20169;-62
2024/01/29 08:41:22;;;;;;;7.87;5.27;;;7.40;99.90;;;;;;4985036;28;20557;-60
2024/01/29 08:43:48;;;;;;;4.40;4.00;;;7.20;99.90;;;;;;4990818;28;20190;-60
2024/01/29 08:46:14;;;;;;;6.37;4.10;;;6.70;99.90;;;;;;4988825;28;20274;-59
2024/01/29 08:48:40;;;;;;;5.00;4.40;;;6.10;99.90;;;;;;4989763;28;20181;-64
2024/01/29 08:51:05;;;;;;;7.90;4.90;;;5.80;99.90;;;;;;4982978;28;20187;-60
2024/01/29 08:53:31;;;;;;;10.33;6.83;;;6.30;99.90;;;;;;4984119;28;20462;-61
2024/01/29 08:55:57;;;;;;;7.57;4.37;;;6.60;99.90;;;;;;4986577;28;20678;-62
2024/01/29 08:58:23;;;;;;;11.20;5.10;;;7.00;99.90;;;;;;4987175;28;20169;-60
2024/01/29 09:00:54;;;;;;;6.00;5.40;;;6.90;99.90;;;;;;4983843;28;20437;-62
2024/01/29 09:03:20;;;;;;;6.77;3.90;;;7.20;99.90;;;;;;4989335;28;20196;-62
2024/01/29 09:05:47;;;;;;;7.97;3.97;;;7.10;99.90;;;;;;4983326;28;20404;-59
2024/01/29 09:08:14;;;;;;;5.07;4.30;;;7.60;99.90;;;;;;4983446;28;20419;-58
2024/01/29 09:10:40;;;;;;;4.20;3.37;;;7.90;99.90;;;;;;4984017;28;20411;-62
2024/01/29 09:13:05;;;;;;;5.23;3.60;;;7.70;99.90;;;;;;4984558;28;20438;-61
2024/01/29 09:15:31;;;;;;;6.57;4.60;;;7.70;99.90;;;;;;4981264;28;20545;-59
2024/01/29 09:17:56;;;;;;;8.73;5.40;;;8.20;99.90;;;;;;4987996;28;20526;-61
2024/01/29 09:20:22;;;;;;;8.70;5.50;;;8.20;99.90;;;;;;4985106;28;20188;-62
2024/01/29 09:22:48;;;;;;;10.10;4.67;;;7.60;99.90;;;;;;4980711;28;20295;-61
2024/01/29 09:25:13;;;;;;;7.80;5.53;;;7.10;99.90;;;;;;4981816;28;20173;-60
2024/01/29 09:27:39;;;;;;;4.87;3.87;;;6.60;99.90;;;;;;4983806;28;20640;-62
2024/01/29 09:30:06;;;;;;;7.17;4.17;;;6.50;99.90;;;;;;4987712;28;20256;-58
2024/01/29 09:32:31;;;;;;;5.30;3.80;;;6.50;99.90;;;;;;4986993;28;20437;-61
2024/01/29 09:34:57;;;;;;;5.40;4.47;;;6.40;99.90;;;;;;4987751;28;20497;-60
2024/01/29 09:37:23;;;;;;;6.13;4.20;;;6.30;99.90;;;;;;4987556;28;20215;-62
2024/01/29 09:39:50;;;;;;;4.33;3.60;;;6.20;99.90;;;;;;4985850;28;20412;-59
2024/01/29 09:42:24;;;;;;;5.70;4.67;;;6.30;99.90;;;;;;4989646;28;20685;-58
2024/01/29 09:44:53;;;;;;;4.47;3.80;;;6.30;99.90;;;;;;4994007;28;20408;-60
2024/01/29 09:47:19;;;;;;;4.60;4.10;;;6.20;99.90;;;;;;4989247;28;20497;-62
2024/01/29 09:49:45;;;;;;;9.77;6.73;;;6.00;99.90;;;;;;4990718;28;20919;-62
2024/01/29 09:52:12;;;;;;;13.13;8.17;;;6.20;99.90;;;;;;4990906;28;20501;-60
2024/01/29 09:54:39;;;;;;;6.50;5.70;;;6.50;99.90;;;;;;4989314;28;20421;-58
2024/01/29 09:57:05;;;;;;;9.63;4.70;;;6.60;99.90;;;;;;5000902;28;20792;-62
2024/01/29 09:59:31;;;;;;;6.33;4.43;;;6.60;99.90;;;;;;5000231;28;20422;-63
2024/01/29 10:02:00;;;;;;;8.00;4.87;;;6.60;99.90;;;;;;4998581;28;20182;-59
2024/01/29 10:04:25;;;;;;;7.70;4.77;;;6.50;99.90;;;;;;4991638;28;20538;-60
2024/01/29 10:06:51;;;;;;;5.57;3.90;;;6.50;99.90;;;;;;4989011;28;20444;-62
2024/01/29 10:09:17;;;;;;;6.70;3.60;;;6.70;99.90;;;;;;4987300;28;20183;-59
2024/01/29 10:11:43;;;;;;;7.77;4.57;;;6.60;99.90;;;;;;4992100;28;20426;-62
2024/01/29 10:14:09;;;;;;;5.33;3.73;;;6.60;99.90;;;;;;4984070;28;20566;-58
2024/01/29 10:16:34;;;;;;;7.27;5.33;;;6.60;99.90;;;;;;4984781;28;20458;-59
2024/01/29 10:19:01;;;;;;;7.80;4.47;;;6.70;99.90;;;;;;4995939;28;20181;-63
2024/01/29 10:21:31;;;;;;;13.10;4.30;;;6.60;99.90;;;;;;4985708;28;20653;-62
2024/01/29 10:23:58;;;;;;;7.77;4.40;;;6.70;99.90;;;;;;4984401;28;20499;-62
2024/01/29 10:26:24;;;;;;;5.00;3.70;;;6.80;99.90;;;;;;4985028;28;20420;-60
2024/01/29 10:29:03;;;;;;;5.40;3.93;;;6.80;99.90;;;;;;4982599;28;20429;-62
2024/01/29 10:31:29;;;;;;;6.13;4.10;;;6.80;99.90;;;;;;4978868;28;20429;-60
2024/01/29 10:33:55;;;;;;;4.60;3.90;;;6.90;99.90;;;;;;4990807;28;20458;-63
2024/01/29 10:36:22;;;;;;;12.70;5.10;;;7.00;99.90;;;;;;4984908;28;20593;-59
2024/01/29 10:38:48;;;;;;;5.77;3.83;;;7.10;99.90;;;;;;4998422;28;20421;-63
2024/01/29 10:41:20;;;;;;;6.60;4.17;;;7.20;99.90;;;;;;4982467;28;20415;-63
2024/01/29 10:43:50;;;;;;;5.63;3.60;;;7.30;99.90;;;;;;4985447;28;20506;-59
2024/01/29 10:46:20;;;;;;;4.40;4.00;;;7.40;99.90;;;;;;4984422;28;20554;-61
2024/01/29 10:48:51;;;;;;;5.30;3.60;;;7.40;99.90;;;;;;4990218;28;20735;-56
2024/01/29 10:51:17;;;;;;;4.13;3.73;;;7.50;99.90;;;;;;4991807;28;20454;-60
2024/01/29 10:53:45;;;;;;;4.10;3.67;;;7.50;99.90;;;;;;4993226;28;20438;-59
2024/01/29 10:56:14;;;;;;;7.07;4.47;;;7.60;99.90;;;;;;4995987;28;20486;-58
2024/01/29 10:58:41;;;;;;;5.70;3.40;;;7.70;99.90;;;;;;4996413;28;20428;-60
2024/01/29 11:01:06;;;;;;;6.17;3.67;;;7.80;99.90;;;;;;4991306;28;20424;-61
2024/01/29 11:03:34;;;;;;;4.60;3.00;;;7.90;99.90;;;;;;4996990;28;20449;-63
2024/01/29 11:06:13;;;;;;;4.40;2.60;;;7.90;99.90;;;;;;4995173;28;20165;-62
2024/01/29 11:08:41;;;;;;;4.87;3.10;;;8.00;99.90;;;;;;4998268;28;20797;-62
2024/01/29 11:11:09;;;;;;;5.40;3.57;;;8.10;99.90;;;;;;4992532;28;20784;-62
2024/01/29 11:13:36;;;;;;;4.23;3.30;;;8.20;99.90;;;;;;4992312;28;20989;-60
2024/01/29 11:16:01;;;;;;;5.33;3.63;;;8.20;99.90;;;;;;4989793;28;20511;-62
2024/01/29 11:18:33;;;;;;;5.50;3.60;;;8.30;99.90;;;;;;4990920;28;20857;-64
2024/01/29 11:21:00;;;;;;;6.90;3.40;;;8.30;99.90;;;;;;4992693;28;20174;-63
2024/01/29 11:23:26;;;;;;;4.20;3.30;;;8.40;99.90;;;;;;4989154;28;20491;-60
2024/01/29 11:25:51;;;;;;;6.30;4.07;;;8.50;99.90;;;;;;4989090;28;20932;-62
2024/01/29 11:28:17;;;;;;;10.57;2.90;;;8.60;99.90;;;;;;4989824;28;20452;-60
2024/01/29 11:30:58;;;;;;;4.20;2.90;;;8.70;99.90;;;;;;4988229;28;20246;-62
2024/01/29 11:33:24;;;;;;;4.70;3.10;;;8.60;99.90;;;;;;4992854;28;20614;-59
2024/01/29 11:35:55;;;;;;;5.03;3.27;;;8.60;99.90;;;;;;4987379;28;20471;-61
2024/01/29 11:38:25;;;;;;;5.60;3.40;;;8.70;99.90;;;;;;4987469;28;20181;-61
2024/01/29 11:40:51;;;;;;;5.27;3.40;;;8.80;99.90;;;;;;4988639;28;20898;-60
2024/01/29 11:43:19;;;;;;;3.40;3.03;;;8.80;99.90;;;;;;4988394;28;20436;-63
2024/01/29 11:45:51;;;;;;;4.37;3.17;;;9.00;99.90;;;;;;4992063;28;20243;-62
2024/01/29 11:48:19;;;;;;;5.30;3.17;;;9.00;99.90;;;;;;4988567;28;20420;-57
2024/01/29 11:50:51;;;;;;;4.80;3.67;;;9.10;99.50;;;;;;4995107;28;20554;-59
2024/01/29 11:53:18;;;;;;;6.57;3.53;;;9.20;99.10;;;;;;4990433;28;20515;-60
2024/01/29 11:55:46;;;;;;;4.30;3.23;;;9.20;98.70;;;;;;4989254;28;20698;-60
2024/01/29 11:58:18;;;;;;;4.67;3.20;;;9.20;98.70;;;;;;4991733;28;20427;-57
2024/01/29 12:00:45;;;;;;;3.20;2.80;;;9.40;99.10;;;;;;4988436;28;20411;-58
2024/01/29 12:03:15;;;;;;;3.13;2.60;;;9.40;98.80;;;;;;4986841;28;20942;-57
2024/01/29 12:05:41;;;;;;;14.63;3.40;;;9.50;98.80;;;;;;4988745;28;20436;-57
2024/01/29 12:08:14;;;;;;;4.37;2.77;;;9.70;98.20;;;;;;5001438;28;20819;-62
2024/01/29 12:10:41;;;;;;;7.17;3.20;;;9.70;97.40;;;;;;5000365;28;20432;-62
2024/01/29 12:13:19;;;;;;;5.43;3.03;;;9.80;97.00;;;;;;4990452;28;20429;-58
2024/01/29 12:15:45;;;;;;;3.43;2.70;;;9.90;96.70;;;;;;4984542;28;20435;-60
2024/01/29 12:18:18;;;;;;;4.43;2.57;;;9.80;95.80;;;;;;4987525;28;21024;-61
2024/01/29 12:20:44;;;;;;;5.67;2.97;;;9.80;95.60;;;;;;4986815;28;20448;-61
2024/01/29 12:23:10;;;;;;;4.10;2.90;;;9.90;95.60;;;;;;4993642;28;20448;-61
2024/01/29 12:25:36;;;;;;;3.33;2.77;;;9.90;95.20;;;;;;4992775;28;20428;-62
2024/01/29 12:28:03;;;;;;;3.33;2.80;;;9.80;94.90;;;;;;4987435;28;20412;-62
2024/01/29 12:30:30;;;;;;;5.93;3.37;;;9.80;94.60;;;;;;4988596;28;20785;-59
2024/01/29 12:32:56;;;;;;;4.50;3.07;;;9.80;95.00;;;;;;4991947;28;20435;-61
2024/01/29 12:35:27;;;;;;;2.23;2.03;;;9.80;94.60;;;;;;4992395;28;20519;-62
2024/01/29 12:37:53;;;;;;;2.33;2.10;;;9.80;94.60;;;;;;4991332;28;20674;-60
2024/01/29 12:40:19;;;;;;;2.63;2.37;;;9.70;94.50;;;;;;4991306;28;20414;-62
2024/01/29 12:42:45;;;;;;;4.90;3.70;;;9.70;94.50;;;;;;4990533;28;20196;-60
2024/01/29 12:45:17;;;;;;;4.30;2.50;;;9.70;94.60;;;;;;4990148;28;20933;-62
2024/01/29 12:47:43;;;;;;;2.83;2.63;;;9.80;94.70;;;;;;4986817;28;20567;-59
2024/01/29 12:50:15;;;;;;;4.40;2.40;;;9.70;94.80;;;;;;4984362;28;20417;-63
2024/01/29 12:52:41;;;;;;;2.90;2.40;;;9.80;94.60;;;;;;4995577;28;20799;-59